createdAt,value
2022-12-20T00:00:44.503Z,50.57
2022-12-20T00:01:44.609Z,56.19
2022-12-20T00:02:44.518Z,51.78
2022-12-20T00:03:44.549Z,46.04
2022-12-20T00:05:16.396Z,57.33
2022-12-20T00:05:44.470Z,45.88
2022-12-20T00:06:45.453Z,45.54
2022-12-20T00:07:44.468Z,44.43
2022-12-20T00:08:44.472Z,48.15
2022-12-20T00:09:44.441Z,50.43
2022-12-20T00:10:44.419Z,52.40
2022-12-20T00:11:44.453Z,56.02
2022-12-20T00:12:44.427Z,51.62
2022-12-20T00:14:17.381Z,50.83
2022-12-20T00:14:44.409Z,44.25
2022-12-20T00:15:45.263Z,44.92
2022-12-20T00:16:44.381Z,43.52
2022-12-20T00:17:44.489Z,49.75
2022-12-20T00:18:44.400Z,50.73
2022-12-20T00:19:44.392Z,46.34
2022-12-20T00:20:44.576Z,43.81
2022-12-20T00:21:45.349Z,56.84
2022-12-20T00:22:44.339Z,50.37
2022-12-20T00:23:44.367Z,50.17
2022-12-20T00:24:44.323Z,49.21
2022-12-20T00:25:44.328Z,56.92
2022-12-20T00:26:44.379Z,54.43
2022-12-20T00:27:44.308Z,60.42
2022-12-20T00:28:44.308Z,43.88
2022-12-20T00:29:44.329Z,43.27
2022-12-20T00:30:44.295Z,43.17
2022-12-20T00:31:44.340Z,52.25
2022-12-20T00:32:44.277Z,52.66
2022-12-20T00:33:44.287Z,43.36
2022-12-20T00:34:44.253Z,42.80
2022-12-20T00:35:44.267Z,42.83
2022-12-20T00:36:44.237Z,44.07
2022-12-20T00:38:16.128Z,43.37
2022-12-20T00:38:44.215Z,56.16
2022-12-20T00:39:44.249Z,52.76
2022-12-20T00:40:44.222Z,50.08
2022-12-20T00:41:44.829Z,45.25
2022-12-20T00:42:44.218Z,43.48
2022-12-20T00:43:44.177Z,50.40
2022-12-20T00:44:44.177Z,59.83
2022-12-20T00:45:44.150Z,47.06
2022-12-20T00:46:45.242Z,54.97
2022-12-20T00:47:44.184Z,48.47
2022-12-20T00:48:44.142Z,57.41
2022-12-20T00:49:44.126Z,49.18
2022-12-20T00:50:44.197Z,51.81
2022-12-20T00:51:44.174Z,45.03
2022-12-20T00:52:44.112Z,50.56
2022-12-20T00:53:44.147Z,45.59
2022-12-20T00:54:44.086Z,52.36
2022-12-20T00:55:44.119Z,43.47
2022-12-20T00:56:44.117Z,45.68
2022-12-20T00:57:44.117Z,53.53
2022-12-20T00:58:44.087Z,43.23
2022-12-20T00:59:44.039Z,42.96
2022-12-20T01:00:44.076Z,44.58
2022-12-20T01:01:46.008Z,58.15
2022-12-20T01:02:44.207Z,58.59
2022-12-20T01:03:44.049Z,44.85
2022-12-20T01:04:44.015Z,43.78
2022-12-20T01:05:44.007Z,55.22
2022-12-20T01:06:44.031Z,43.10
2022-12-20T01:07:43.981Z,43.73
2022-12-20T01:08:45.288Z,49.18
2022-12-20T01:09:43.990Z,43.62
2022-12-20T01:10:43.965Z,50.34
2022-12-20T01:11:44.819Z,49.43
2022-12-20T01:12:43.940Z,44.14
2022-12-20T01:13:44.003Z,55.07
2022-12-20T01:14:43.962Z,50.71
2022-12-20T01:15:43.920Z,60.32
2022-12-20T01:16:44.009Z,53.68
2022-12-20T01:17:44.800Z,52.34
2022-12-20T01:18:43.906Z,56.50
2022-12-20T01:19:43.907Z,56.61
2022-12-20T01:20:43.920Z,52.27
2022-12-20T01:21:43.877Z,58.81
2022-12-20T01:22:47.609Z,55.87
2022-12-20T01:23:44.843Z,44.45
2022-12-20T01:24:43.895Z,61.34
2022-12-20T01:25:43.829Z,43.19
2022-12-20T01:26:44.915Z,43.41
2022-12-20T01:27:43.832Z,43.42
2022-12-20T01:28:43.822Z,54.43
2022-12-20T01:29:44.668Z,55.55
2022-12-20T01:30:43.817Z,49.29
2022-12-20T01:31:44.917Z,47.12
2022-12-20T01:32:44.800Z,49.93
2022-12-20T01:33:43.797Z,43.01
2022-12-20T01:34:43.881Z,48.77
2022-12-20T01:35:44.315Z,50.75
2022-12-20T01:36:44.692Z,50.74
2022-12-20T01:37:43.764Z,55.64
2022-12-20T01:38:43.732Z,48.67
2022-12-20T01:39:43.751Z,51.41
2022-12-20T01:40:43.757Z,57.03
2022-12-20T01:41:43.754Z,57.67
2022-12-20T01:42:43.746Z,45.88
2022-12-20T01:43:45.639Z,53.78
2022-12-20T01:44:43.751Z,59.74
2022-12-20T01:45:43.784Z,55.05
2022-12-20T01:46:43.757Z,47.47
2022-12-20T01:47:43.668Z,43.11
2022-12-20T01:48:44.676Z,46.98
2022-12-20T01:49:45.003Z,48.63
2022-12-20T01:50:44.296Z,50.96
2022-12-20T01:51:43.667Z,55.97
2022-12-20T01:52:43.624Z,52.97
2022-12-20T01:53:43.618Z,50.25
2022-12-20T01:54:43.614Z,54.72
2022-12-20T01:55:43.625Z,50.51
2022-12-20T01:56:43.595Z,51.05
2022-12-20T01:57:43.611Z,43.11
2022-12-20T01:58:43.621Z,43.37
2022-12-20T01:59:43.583Z,50.76
2022-12-20T02:00:43.608Z,43.60
2022-12-20T02:01:44.308Z,56.08
2022-12-20T02:02:43.689Z,56.22
2022-12-20T02:03:43.652Z,49.82
2022-12-20T02:04:43.551Z,44.84
2022-12-20T02:05:43.527Z,49.45
2022-12-20T02:06:44.058Z,44.86
2022-12-20T02:07:44.308Z,50.46
2022-12-20T02:08:43.540Z,50.47
2022-12-20T02:09:43.524Z,52.45
2022-12-20T02:10:43.553Z,43.65
2022-12-20T02:11:43.507Z,42.69
2022-12-20T02:12:43.495Z,42.67
2022-12-20T02:13:43.623Z,42.19
2022-12-20T02:14:43.473Z,42.86
2022-12-20T02:15:43.460Z,42.79
2022-12-20T02:16:43.513Z,42.70
2022-12-20T02:17:44.145Z,43.11
2022-12-20T02:18:43.494Z,50.35
2022-12-20T02:19:43.452Z,42.98
2022-12-20T02:20:43.409Z,42.79
2022-12-20T02:21:44.223Z,52.18
2022-12-20T02:22:43.386Z,43.06
2022-12-20T02:23:43.376Z,45.03
2022-12-20T02:24:44.822Z,49.34
2022-12-20T02:25:43.386Z,57.02
2022-12-20T02:26:43.387Z,42.63
2022-12-20T02:27:43.370Z,52.06
2022-12-20T02:28:44.293Z,47.82
2022-12-20T02:29:43.379Z,45.03
2022-12-20T02:30:43.330Z,45.22
2022-12-20T02:31:43.413Z,44.94
2022-12-20T02:32:43.372Z,44.91
2022-12-20T02:33:43.329Z,43.51
2022-12-20T02:34:43.330Z,43.00
2022-12-20T02:35:43.368Z,43.08
2022-12-20T02:36:43.290Z,44.13
2022-12-20T02:37:43.293Z,55.17
2022-12-20T02:38:43.284Z,50.55
2022-12-20T02:39:43.277Z,43.10
2022-12-20T02:40:43.253Z,42.83
2022-12-20T02:41:43.283Z,42.43
2022-12-20T02:42:43.276Z,42.39
2022-12-20T02:43:43.268Z,42.71
2022-12-20T02:44:43.250Z,51.52
2022-12-20T02:45:43.265Z,54.22
2022-12-20T02:46:43.256Z,43.10
2022-12-20T02:47:43.186Z,42.58
2022-12-20T02:48:43.195Z,42.59
2022-12-20T02:49:43.208Z,42.89
2022-12-20T02:50:44.655Z,44.91
2022-12-20T02:51:44.156Z,46.10
2022-12-20T02:52:43.164Z,53.66
2022-12-20T02:53:43.273Z,56.34
2022-12-20T02:54:43.160Z,50.32
2022-12-20T02:55:43.169Z,47.08
2022-12-20T02:56:43.148Z,46.77
2022-12-20T02:57:43.145Z,53.45
2022-12-20T02:58:43.134Z,52.90
2022-12-20T02:59:43.108Z,49.74
2022-12-20T03:00:43.647Z,50.56
2022-12-20T03:01:43.173Z,57.49
2022-12-20T03:02:43.279Z,50.32
2022-12-20T03:03:43.786Z,44.40
2022-12-20T03:04:43.057Z,42.65
2022-12-20T03:05:43.067Z,42.48
2022-12-20T03:06:43.035Z,42.60
2022-12-20T03:07:43.064Z,43.38
2022-12-20T03:08:43.079Z,43.17
2022-12-20T03:09:43.082Z,54.58
2022-12-20T03:10:43.015Z,42.45
2022-12-20T03:11:42.997Z,42.60
2022-12-20T03:12:43.016Z,42.16
2022-12-20T03:13:43.003Z,43.23
2022-12-20T03:14:43.009Z,46.07
2022-12-20T03:15:42.979Z,51.94
2022-12-20T03:16:43.034Z,60.54
2022-12-20T03:17:42.993Z,59.52
2022-12-20T03:18:42.960Z,51.88
2022-12-20T03:19:42.959Z,45.58
2022-12-20T03:20:42.973Z,53.16
2022-12-20T03:21:42.915Z,43.16
2022-12-20T03:22:42.937Z,43.63
2022-12-20T03:23:42.922Z,45.80
2022-12-20T03:24:43.804Z,49.02
2022-12-20T03:25:42.911Z,50.35
2022-12-20T03:26:42.950Z,51.51
2022-12-20T03:27:42.888Z,49.56
2022-12-20T03:28:43.725Z,50.47
2022-12-20T03:29:42.896Z,49.73
2022-12-20T03:30:42.912Z,48.76
2022-12-20T03:31:43.723Z,44.18
2022-12-20T03:32:44.425Z,49.09
2022-12-20T03:33:42.954Z,46.28
2022-12-20T03:34:42.947Z,46.94
2022-12-20T03:35:42.818Z,51.03
2022-12-20T03:36:43.825Z,53.39
2022-12-20T03:37:42.835Z,55.45
2022-12-20T03:38:42.827Z,55.06
2022-12-20T03:39:42.786Z,54.85
2022-12-20T03:40:43.323Z,55.20
2022-12-20T03:41:42.838Z,53.30
2022-12-20T03:42:42.773Z,53.87
2022-12-20T03:43:42.786Z,50.53
2022-12-20T03:44:42.767Z,53.74
2022-12-20T03:45:43.729Z,56.72
2022-12-20T03:46:42.841Z,60.56
2022-12-20T04:03:50.841Z,55.38
2022-12-20T04:04:50.744Z,51.25
2022-12-20T04:05:50.819Z,55.46
2022-12-20T04:06:50.728Z,62.15
2022-12-20T04:07:51.861Z,58.69
2022-12-20T04:08:51.880Z,57.48
2022-12-20T04:09:51.853Z,47.41
2022-12-20T04:10:51.855Z,62.99
2022-12-20T04:11:51.836Z,57.95
2022-12-20T04:12:51.835Z,60.20
2022-12-20T04:13:51.831Z,47.34
2022-12-20T04:14:51.808Z,50.59
2022-12-20T04:15:56.669Z,59.83
2022-12-20T04:16:53.828Z,57.70
2022-12-20T04:17:51.810Z,62.83
2022-12-20T04:18:51.782Z,53.83
2022-12-20T04:19:51.791Z,54.96
2022-12-20T04:20:51.768Z,53.58
2022-12-20T04:21:51.783Z,52.62
2022-12-20T04:22:51.769Z,61.43
2022-12-20T04:23:51.772Z,60.20
2022-12-20T04:24:51.741Z,58.22
2022-12-20T04:25:51.751Z,58.67
2022-12-20T04:26:51.740Z,61.10
2022-12-20T04:27:51.732Z,61.62
2022-12-20T04:28:51.744Z,62.14
2022-12-20T04:29:51.735Z,58.14
2022-12-20T04:30:51.753Z,64.42
2022-12-20T04:31:51.813Z,63.37
2022-12-20T04:32:51.687Z,62.12
2022-12-20T04:33:51.669Z,57.93
2022-12-20T04:34:51.656Z,57.68
2022-12-20T04:35:51.745Z,64.44
2022-12-20T04:36:51.911Z,70.08
2022-12-20T04:37:51.681Z,68.00
2022-12-20T04:38:51.626Z,59.61
2022-12-20T04:39:51.616Z,57.20
2022-12-20T04:40:51.612Z,64.61
2022-12-20T04:41:51.602Z,56.95
2022-12-20T04:42:51.602Z,53.83
2022-12-20T04:43:51.587Z,50.26
2022-12-20T04:44:51.635Z,69.12
2022-12-20T04:45:51.590Z,64.17
2022-12-20T04:46:51.614Z,58.76
2022-12-20T04:47:51.560Z,65.48
2022-12-20T04:48:59.839Z,66.43
2022-12-20T04:49:53.558Z,63.63
2022-12-20T04:50:51.541Z,66.56
2022-12-20T04:51:51.515Z,62.51
2022-12-20T04:52:51.515Z,55.62
2022-12-20T04:53:51.534Z,63.31
2022-12-20T04:54:51.517Z,60.36
2022-12-20T04:55:51.520Z,62.24
2022-12-20T04:56:51.488Z,64.27
2022-12-20T04:57:51.486Z,60.96
2022-12-20T04:58:51.508Z,68.30
2022-12-20T04:59:51.476Z,65.42
2022-12-20T05:00:51.499Z,59.08
2022-12-20T05:01:51.549Z,61.28
2022-12-20T05:02:51.891Z,61.93
2022-12-20T05:03:51.584Z,55.92
2022-12-20T05:04:51.417Z,62.59
2022-12-20T05:05:51.404Z,64.41
2022-12-20T05:06:51.409Z,62.44
2022-12-20T05:07:51.428Z,65.44
2022-12-20T05:08:51.425Z,54.00
2022-12-20T05:09:51.401Z,62.54
2022-12-20T05:10:51.396Z,66.59
2022-12-20T05:11:52.321Z,60.86
2022-12-20T05:12:51.366Z,64.18
2022-12-20T05:13:51.389Z,59.91
2022-12-20T05:14:51.374Z,61.83
2022-12-20T05:15:51.403Z,61.65
2022-12-20T05:16:51.340Z,66.07
2022-12-20T05:17:52.841Z,62.13
2022-12-20T05:18:51.326Z,65.47
2022-12-20T05:19:51.353Z,60.45
2022-12-20T05:20:51.335Z,60.35
2022-12-20T05:21:51.408Z,64.72
2022-12-20T05:22:51.327Z,64.31
2022-12-20T05:23:51.286Z,63.50
2022-12-20T05:24:51.277Z,65.03
2022-12-20T05:25:51.262Z,66.05
2022-12-20T05:26:51.338Z,69.08
2022-12-20T05:27:51.255Z,69.18
2022-12-20T05:28:51.252Z,65.18
2022-12-20T05:29:51.244Z,70.47
2022-12-20T05:30:51.397Z,63.41
2022-12-20T05:31:51.299Z,69.30
2022-12-20T05:32:51.197Z,69.54
2022-12-20T05:33:51.247Z,65.50
2022-12-20T05:34:51.250Z,63.78
2022-12-20T05:35:52.001Z,65.32
2022-12-20T05:36:51.267Z,62.14
2022-12-20T05:37:51.209Z,65.65
2022-12-20T05:38:51.176Z,68.92
2022-12-20T05:39:51.184Z,68.05
2022-12-20T05:40:51.208Z,67.36
2022-12-20T05:41:51.168Z,65.39
2022-12-20T05:42:51.135Z,68.97
2022-12-20T05:43:51.981Z,72.14
2022-12-20T05:44:51.112Z,71.28
2022-12-20T05:45:51.107Z,70.81
2022-12-20T05:46:51.200Z,66.36
2022-12-20T05:47:51.103Z,62.04
2022-12-20T05:48:51.143Z,68.49
2022-12-20T05:49:51.105Z,71.06
2022-12-20T05:50:51.094Z,67.39
2022-12-20T05:51:51.154Z,68.42
2022-12-20T05:52:51.092Z,72.34
2022-12-20T05:53:51.066Z,70.94
2022-12-20T05:54:51.593Z,70.13
2022-12-20T05:55:51.018Z,61.97
2022-12-20T05:56:51.044Z,62.90
2022-12-20T05:57:51.027Z,72.07
2022-12-20T05:58:53.893Z,66.30
2022-12-20T05:59:50.993Z,64.35
2022-12-20T06:00:51.021Z,68.06
2022-12-20T06:01:51.668Z,66.07
2022-12-20T06:02:51.222Z,68.34
2022-12-20T06:03:51.127Z,62.39
2022-12-20T06:04:50.980Z,72.96
2022-12-20T06:05:50.961Z,71.23
2022-12-20T06:06:50.968Z,69.15
2022-12-20T06:07:50.946Z,71.15
2022-12-20T06:08:50.946Z,71.14
2022-12-20T06:09:50.984Z,69.98
2022-12-20T06:10:50.929Z,68.45
2022-12-20T06:11:50.919Z,70.49
2022-12-20T06:12:50.927Z,67.59
2022-12-20T06:13:51.897Z,69.72
2022-12-20T06:14:50.907Z,66.91
2022-12-20T06:15:50.967Z,67.71
2022-12-20T06:16:50.899Z,74.72
2022-12-20T06:17:50.875Z,70.65
2022-12-20T06:18:50.872Z,69.21
2022-12-20T06:19:50.900Z,69.26
2022-12-20T06:20:50.885Z,71.05
2022-12-20T06:21:50.876Z,71.32
2022-12-20T06:22:50.818Z,71.96
2022-12-20T06:23:50.802Z,74.64
2022-12-20T06:24:51.480Z,72.99
2022-12-20T06:25:50.782Z,72.40
2022-12-20T06:26:50.837Z,71.63
2022-12-20T06:27:50.791Z,71.42
2022-12-20T06:28:50.797Z,73.77
2022-12-20T06:29:50.791Z,72.58
2022-12-20T06:30:50.763Z,70.56
2022-12-20T06:31:50.826Z,66.08
2022-12-20T06:32:50.749Z,71.39
2022-12-20T06:33:50.730Z,73.64
2022-12-20T06:34:50.735Z,70.50
2022-12-20T06:35:50.746Z,74.13
2022-12-20T06:36:50.739Z,72.18
2022-12-20T06:38:22.644Z,74.83
2022-12-20T06:38:50.663Z,70.24
2022-12-20T06:39:51.721Z,71.37
2022-12-20T06:40:50.809Z,73.01
2022-12-20T06:41:50.711Z,71.61
2022-12-20T06:42:50.707Z,67.54
2022-12-20T06:43:50.680Z,72.28
2022-12-20T06:44:50.715Z,69.26
2022-12-20T06:45:50.659Z,72.16
2022-12-20T06:46:51.639Z,69.66
2022-12-20T06:47:50.656Z,70.83
2022-12-20T06:48:50.636Z,74.94
2022-12-20T06:49:50.606Z,68.30
2022-12-20T06:50:55.608Z,71.04
2022-12-20T06:51:52.632Z,73.37
2022-12-20T06:52:50.602Z,67.99
2022-12-20T06:53:50.601Z,68.20
2022-12-20T06:54:50.596Z,73.27
2022-12-20T06:55:50.591Z,68.16
2022-12-20T06:56:50.561Z,68.49
2022-12-20T06:57:50.560Z,73.08
2022-12-20T06:58:50.595Z,69.12
2022-12-20T06:59:50.596Z,71.95
2022-12-20T07:00:50.623Z,70.54
2022-12-20T07:01:50.608Z,68.98
2022-12-20T07:02:50.655Z,71.44
2022-12-20T07:03:50.654Z,69.84
2022-12-20T07:04:50.487Z,70.12
2022-12-20T07:05:50.519Z,71.48
2022-12-20T07:06:50.479Z,67.41
2022-12-20T07:07:50.503Z,69.69
2022-12-20T07:08:50.509Z,68.23
2022-12-20T07:09:50.443Z,70.94
2022-12-20T07:10:50.449Z,74.86
2022-12-20T07:11:50.491Z,72.11
2022-12-20T07:12:50.437Z,67.92
2022-12-20T07:13:50.421Z,68.91
2022-12-20T07:14:50.455Z,70.78
2022-12-20T07:15:50.469Z,68.74
2022-12-20T07:16:50.536Z,74.03
2022-12-20T07:17:50.412Z,70.57
2022-12-20T07:18:50.424Z,66.17
2022-12-20T07:19:51.126Z,70.72
2022-12-20T07:20:51.396Z,70.46
2022-12-20T07:21:50.368Z,71.81
2022-12-20T07:22:50.451Z,73.74
2022-12-20T07:23:50.390Z,67.51
2022-12-20T07:24:50.356Z,64.94
2022-12-20T07:25:50.382Z,72.25
2022-12-20T07:26:50.332Z,70.11
2022-12-20T07:27:50.385Z,69.00
2022-12-20T07:28:50.377Z,69.13
2022-12-20T07:29:50.310Z,61.41
2022-12-20T07:30:50.354Z,62.99
2022-12-20T07:31:50.381Z,69.70
2022-12-20T07:32:50.306Z,68.74
2022-12-20T07:33:50.260Z,70.61
2022-12-20T07:34:50.278Z,65.98
2022-12-20T07:35:54.382Z,69.90
2022-12-20T07:36:51.263Z,72.88
2022-12-20T07:37:50.272Z,57.68
2022-12-20T07:38:50.269Z,69.57
2022-12-20T07:39:50.230Z,66.88
2022-12-20T07:40:51.080Z,69.63
2022-12-20T07:41:50.235Z,65.54
2022-12-20T07:42:50.283Z,71.12
2022-12-20T07:43:50.228Z,69.78
2022-12-20T07:44:50.182Z,69.30
2022-12-20T07:45:50.255Z,68.76
2022-12-20T07:46:50.185Z,69.20
2022-12-20T07:47:50.213Z,64.54
2022-12-20T07:48:50.182Z,67.49
2022-12-20T07:49:50.193Z,72.03
2022-12-20T07:50:50.150Z,68.76
2022-12-20T07:51:50.120Z,66.70
2022-12-20T07:52:51.174Z,67.53
2022-12-20T07:53:50.144Z,67.59
2022-12-20T07:54:50.947Z,67.62
2022-12-20T07:55:50.098Z,71.68
2022-12-20T07:56:50.102Z,67.44
2022-12-20T07:57:50.117Z,70.98
2022-12-20T07:58:50.101Z,67.98
2022-12-20T07:59:50.133Z,71.07
2022-12-20T08:00:50.259Z,71.00
2022-12-20T08:01:50.207Z,71.02
2022-12-20T08:02:50.273Z,72.52
2022-12-20T08:03:50.116Z,72.53
2022-12-20T08:04:50.109Z,72.61
2022-12-20T08:05:50.055Z,69.58
2022-12-20T08:06:50.047Z,65.96
2022-12-20T08:07:55.068Z,70.82
2022-12-20T08:08:52.021Z,70.76
2022-12-20T08:09:50.074Z,66.95
2022-12-20T08:10:50.046Z,66.29
2022-12-20T08:11:50.008Z,69.98
2022-12-20T08:12:49.972Z,65.74
2022-12-20T08:13:54.163Z,67.75
2022-12-20T08:14:51.958Z,72.28
2022-12-20T08:15:49.969Z,67.58
2022-12-20T08:16:49.981Z,69.42
2022-12-20T08:18:21.846Z,69.06
2022-12-20T08:18:49.931Z,65.32
2022-12-20T08:19:49.948Z,67.16
2022-12-20T08:20:49.932Z,70.13
2022-12-20T08:21:49.944Z,67.82
2022-12-20T08:22:49.931Z,64.70
2022-12-20T08:23:49.890Z,68.44
2022-12-20T08:24:49.874Z,68.36
2022-12-20T08:25:49.944Z,68.39
2022-12-20T08:26:49.907Z,68.69
2022-12-20T08:27:49.863Z,64.88
2022-12-20T08:28:49.865Z,69.62
2022-12-20T08:29:49.874Z,67.54
2022-12-20T08:30:49.951Z,66.89
2022-12-20T08:31:50.781Z,66.85
2022-12-20T08:32:50.908Z,64.96
2022-12-20T08:33:49.964Z,72.67
2022-12-20T08:34:49.815Z,69.34
2022-12-20T08:35:49.804Z,66.63
2022-12-20T08:36:49.808Z,66.70
2022-12-20T08:37:49.787Z,71.72
2022-12-20T08:38:49.792Z,67.22
2022-12-20T08:39:49.771Z,68.18
2022-12-20T08:40:49.779Z,71.37
2022-12-20T08:41:49.763Z,73.45
2022-12-20T08:42:49.982Z,63.86
2022-12-20T08:43:49.777Z,70.58
2022-12-20T08:44:49.831Z,67.81
2022-12-20T08:45:49.796Z,68.44
2022-12-20T08:46:49.741Z,68.01
2022-12-20T08:47:49.897Z,70.61
2022-12-20T08:48:50.799Z,70.64
2022-12-20T08:49:49.713Z,69.93
2022-12-20T08:50:49.743Z,68.57
2022-12-20T08:51:49.721Z,67.93
2022-12-20T08:52:49.684Z,67.42
2022-12-20T08:53:49.676Z,69.16
2022-12-20T08:54:49.678Z,69.92
2022-12-20T08:55:49.656Z,64.41
2022-12-20T08:56:49.642Z,69.48
2022-12-20T08:57:49.644Z,71.49
2022-12-20T08:58:49.628Z,71.23
2022-12-20T08:59:49.666Z,66.98
2022-12-20T09:00:49.599Z,70.36
2022-12-20T09:01:49.697Z,65.21
2022-12-20T09:02:49.745Z,71.97
2022-12-20T09:03:49.663Z,68.38
2022-12-20T09:04:49.556Z,68.83
2022-12-20T09:05:49.571Z,66.08
2022-12-20T09:06:49.545Z,63.77
2022-12-20T09:07:49.532Z,64.03
2022-12-20T09:08:49.593Z,70.92
2022-12-20T09:09:49.541Z,63.65
2022-12-20T09:10:49.599Z,69.71
2022-12-20T09:11:49.529Z,71.92
2022-12-20T09:12:49.515Z,70.20
2022-12-20T09:13:49.499Z,65.98
2022-12-20T09:14:49.505Z,69.99
2022-12-20T09:15:49.559Z,68.26
2022-12-20T09:16:49.511Z,69.08
2022-12-20T09:17:49.507Z,67.25
2022-12-20T09:18:49.485Z,67.38
2022-12-20T09:19:49.501Z,69.57
2022-12-20T09:20:49.443Z,67.28
2022-12-20T09:21:49.459Z,68.58
2022-12-20T09:22:49.428Z,69.05
2022-12-20T09:23:49.446Z,65.63
2022-12-20T09:24:49.421Z,66.31
2022-12-20T09:25:53.706Z,66.17
2022-12-20T09:27:21.357Z,70.61
2022-12-20T09:27:49.447Z,69.90
2022-12-20T09:29:28.318Z,55.97
2022-12-20T09:29:50.406Z,71.60
2022-12-20T09:30:49.472Z,70.32
2022-12-20T09:31:49.356Z,67.66
2022-12-20T09:32:49.362Z,71.41
2022-12-20T09:33:49.428Z,65.91
2022-12-20T09:34:49.341Z,71.04
2022-12-20T09:35:49.383Z,65.99
2022-12-20T09:36:49.355Z,64.35
2022-12-20T09:37:49.336Z,72.57
2022-12-20T09:38:49.343Z,70.37
2022-12-20T09:39:49.342Z,64.12
2022-12-20T09:40:49.303Z,61.91
2022-12-20T09:41:49.294Z,67.79
2022-12-20T09:42:49.306Z,65.22
2022-12-20T09:43:49.258Z,74.50
2022-12-20T09:47:47.403Z,71.38
2022-12-20T09:48:47.386Z,65.85
2022-12-20T09:49:47.370Z,68.03
2022-12-20T09:50:47.360Z,63.50
2022-12-20T09:51:47.375Z,69.44
2022-12-20T09:52:47.334Z,70.61
2022-12-20T09:53:47.337Z,72.84
2022-12-20T09:54:47.317Z,63.57
2022-12-20T09:55:47.335Z,70.17
2022-12-20T09:56:47.302Z,67.07
2022-12-20T09:57:47.327Z,72.15
2022-12-20T09:58:47.298Z,68.74
2022-12-20T09:59:50.005Z,64.99
2022-12-20T10:00:53.985Z,66.43
2022-12-20T10:01:50.501Z,71.57
2022-12-20T10:03:09.898Z,64.24
2022-12-20T10:03:50.722Z,69.15
2022-12-20T10:04:48.564Z,64.75
2022-12-20T10:06:20.324Z,69.06
2022-12-20T10:06:48.399Z,63.90
2022-12-20T10:07:48.355Z,72.13
2022-12-20T10:08:48.359Z,69.93
2022-12-20T10:09:48.398Z,67.78
2022-12-20T10:10:48.421Z,68.73
2022-12-20T10:11:50.768Z,68.20
2022-12-20T10:12:49.328Z,70.86
2022-12-20T10:13:48.334Z,69.08
2022-12-20T10:14:48.409Z,65.50
2022-12-20T10:15:48.391Z,69.70
2022-12-20T10:16:48.283Z,69.18
2022-12-20T10:17:48.298Z,65.18
2022-12-20T10:18:48.275Z,68.35
2022-12-20T10:19:48.300Z,70.53
2022-12-20T10:20:48.291Z,63.81
2022-12-20T10:21:48.277Z,71.19
2022-12-20T10:22:48.319Z,68.57
2022-12-20T10:23:48.251Z,66.05
2022-12-20T10:24:48.245Z,66.04
2022-12-20T10:25:48.290Z,65.72
2022-12-20T10:26:48.307Z,65.43
2022-12-20T10:27:48.260Z,69.96
2022-12-20T10:28:53.800Z,68.88
2022-12-20T10:29:50.199Z,68.98
2022-12-20T10:30:48.230Z,66.76
2022-12-20T10:31:48.222Z,70.55
2022-12-20T10:32:48.224Z,62.56
2022-12-20T10:33:48.174Z,63.35
2022-12-20T10:34:48.754Z,67.81
2022-12-20T10:35:49.166Z,67.11
2022-12-20T10:36:48.152Z,70.86
2022-12-20T10:38:06.492Z,63.45
2022-12-20T10:38:50.154Z,71.54
2022-12-20T10:39:48.153Z,67.82
2022-12-20T10:41:50.142Z,63.29
2022-12-20T10:42:48.136Z,71.49
2022-12-20T10:43:48.107Z,65.51
2022-12-20T10:44:48.081Z,68.86
2022-12-20T10:45:48.070Z,69.21
2022-12-20T10:46:48.118Z,68.38
2022-12-20T10:47:48.095Z,70.86
2022-12-20T10:48:48.097Z,73.45
2022-12-20T10:49:48.065Z,70.72
2022-12-20T10:50:48.118Z,70.05
2022-12-20T10:51:48.096Z,70.76
2022-12-20T10:52:48.054Z,71.70
2022-12-20T10:53:48.063Z,70.49
2022-12-20T10:54:48.033Z,73.28
2022-12-20T10:55:47.990Z,70.67
2022-12-20T10:56:48.035Z,65.25
2022-12-20T10:57:48.000Z,65.18
2022-12-20T10:58:47.994Z,68.23
2022-12-20T10:59:48.059Z,65.38
2022-12-20T11:00:47.968Z,72.46
2022-12-20T11:01:48.050Z,70.91
2022-12-20T11:02:48.065Z,62.64
2022-12-20T11:03:48.005Z,66.23
2022-12-20T11:04:47.971Z,65.82
2022-12-20T11:05:48.044Z,70.29
2022-12-20T11:06:47.930Z,70.48
2022-12-20T11:08:08.544Z,63.45
2022-12-20T11:08:53.993Z,69.02
2022-12-20T11:09:49.907Z,66.97
2022-12-20T11:10:47.912Z,70.49
2022-12-20T11:11:47.928Z,70.16
2022-12-20T11:12:47.861Z,69.78
2022-12-20T11:13:47.951Z,70.40
2022-12-20T11:14:47.866Z,69.75
2022-12-20T11:15:48.564Z,70.12
2022-12-20T11:16:47.951Z,69.02
2022-12-20T11:17:47.848Z,71.54
2022-12-20T11:18:47.811Z,65.45
2022-12-20T11:19:47.876Z,67.46
2022-12-20T11:20:49.598Z,70.27
2022-12-20T11:21:47.808Z,68.35
2022-12-20T11:22:47.824Z,71.26
2022-12-20T11:23:47.874Z,66.38
2022-12-20T11:24:47.808Z,69.26
2022-12-20T11:25:47.826Z,69.45
2022-12-20T11:26:47.775Z,66.98
2022-12-20T11:28:19.644Z,71.15
2022-12-20T11:28:47.741Z,69.88
2022-12-20T11:29:47.777Z,71.04
2022-12-20T11:30:47.729Z,62.43
2022-12-20T11:31:47.774Z,69.25
2022-12-20T11:32:48.993Z,69.73
2022-12-20T11:33:48.701Z,69.40
2022-12-20T11:34:47.707Z,67.95
2022-12-20T11:35:47.749Z,67.94
2022-12-20T11:36:47.705Z,70.72
2022-12-20T11:37:47.697Z,65.56
2022-12-20T11:38:47.674Z,68.30
2022-12-20T11:39:47.683Z,71.79
2022-12-20T11:40:47.657Z,66.91
2022-12-20T11:41:47.645Z,66.84
2022-12-20T11:42:47.634Z,66.28
2022-12-20T11:44:15.848Z,63.39
2022-12-20T11:44:57.976Z,68.15
2022-12-20T11:45:49.631Z,67.51
2022-12-20T11:46:47.694Z,67.58
2022-12-20T11:47:47.614Z,63.72
2022-12-20T11:48:47.631Z,67.08
2022-12-20T11:49:47.608Z,67.83
2022-12-20T11:50:47.566Z,69.11
2022-12-20T11:51:47.557Z,69.52
2022-12-20T11:52:47.591Z,66.80
2022-12-20T11:53:47.566Z,65.00
2022-12-20T11:54:47.554Z,71.45
2022-12-20T11:56:19.529Z,69.60
2022-12-20T11:56:47.524Z,73.60
2022-12-20T11:58:08.950Z,66.81
2022-12-20T11:58:49.595Z,66.75
2022-12-20T11:59:47.491Z,67.50
2022-12-20T12:00:47.563Z,64.84
2022-12-20T12:01:47.667Z,69.58
2022-12-20T12:02:51.653Z,67.90
2022-12-20T12:03:48.501Z,67.58
2022-12-20T12:04:47.497Z,68.56
2022-12-20T12:05:47.572Z,70.12
2022-12-20T12:06:47.547Z,68.90
2022-12-20T12:07:47.470Z,68.21
2022-12-20T12:08:47.446Z,68.51
2022-12-20T12:09:48.443Z,70.58
2022-12-20T12:10:47.500Z,70.11
2022-12-20T12:12:16.421Z,68.63
2022-12-20T12:12:49.400Z,68.88
2022-12-20T12:13:47.433Z,68.65
2022-12-20T12:14:47.412Z,70.69
2022-12-20T12:15:47.378Z,68.29
2022-12-20T12:16:47.485Z,60.41
2022-12-20T12:17:47.394Z,71.50
2022-12-20T12:18:47.365Z,67.55
2022-12-20T12:19:47.388Z,71.01
2022-12-20T12:20:47.338Z,68.87
2022-12-20T12:21:47.371Z,67.46
2022-12-20T12:22:47.346Z,72.54
2022-12-20T12:23:47.369Z,67.10
2022-12-20T12:24:47.303Z,67.83
2022-12-20T12:25:47.308Z,66.69
2022-12-20T12:26:47.288Z,69.28
2022-12-20T12:27:47.363Z,65.84
2022-12-20T12:28:47.305Z,67.17
2022-12-20T12:30:19.278Z,67.36
2022-12-20T12:30:47.267Z,70.51
2022-12-20T12:31:47.347Z,70.45
2022-12-20T12:32:47.283Z,69.24
2022-12-20T12:33:47.252Z,67.20
2022-12-20T12:34:47.225Z,68.10
2022-12-20T12:35:47.242Z,69.71
2022-12-20T12:36:48.213Z,71.82
2022-12-20T12:37:47.302Z,70.62
2022-12-20T12:39:19.124Z,70.66
2022-12-20T12:39:47.213Z,73.01
2022-12-20T12:40:52.312Z,65.63
2022-12-20T12:41:49.196Z,71.94
2022-12-20T12:42:47.190Z,69.34
2022-12-20T12:43:48.221Z,72.30
2022-12-20T12:44:47.203Z,66.70
2022-12-20T12:45:47.206Z,70.67
2022-12-20T12:46:47.138Z,67.41
2022-12-20T12:47:47.164Z,67.97
2022-12-20T12:48:47.156Z,66.65
2022-12-20T12:49:47.711Z,69.86
2022-12-20T12:50:48.195Z,69.66
2022-12-20T12:51:47.111Z,62.02
2022-12-20T12:52:47.104Z,68.14
2022-12-20T12:53:47.108Z,67.01
2022-12-20T12:54:47.144Z,65.58
2022-12-20T12:55:47.166Z,71.70
2022-12-20T12:56:47.404Z,69.75
2022-12-20T12:57:47.072Z,69.65
2022-12-20T12:58:49.173Z,69.70
2022-12-20T12:59:48.152Z,62.95
2022-12-20T13:00:47.174Z,68.91
2022-12-20T13:01:47.177Z,61.04
2022-12-20T13:02:47.176Z,67.77
2022-12-20T13:03:47.216Z,69.39
2022-12-20T13:05:24.091Z,73.29
2022-12-20T13:05:48.176Z,67.88
2022-12-20T13:06:47.099Z,68.59
2022-12-20T13:07:47.046Z,70.27
2022-12-20T13:08:47.019Z,71.66
2022-12-20T13:09:46.987Z,70.01
2022-12-20T13:10:46.981Z,75.20
2022-12-20T13:11:48.492Z,70.33
2022-12-20T13:12:48.011Z,68.53